Nbp Steamer — V2QM8 — position and weather

sailwx.info

Track history (hours):
 
Tides and Currents Weather Stations Pressure Air Temp Water Temp Dewpoint Dewpoint Depression Visibility Wind Speed Wind Dir Waves Ship Positions

Nbp Steamer

Last reported at 2017-Oct-18 16:54 UTC. Time now 2017-Oct-18 17:04 UTC.
Position N 39°45' E 019°05'.

Length 107 m; draft 5.4 m.

Type: Cargo ship. MMSI: 305714000.

Date/timePositionNaut miles runAvg speedWind from/ knotsBaromVisibWave heightAir tempDewpointWater temp
2017-Oct-18 16:54N 39°45' E 019°05'611.5
2017-Oct-18 16:25N 39°40' E 019°07'1711.3
2017-Oct-18 14:53N 39°24' E 019°15'2311.1
2017-Oct-18 12:49N 39°02' E 019°26'911.2
2017-Oct-18 12:03N 38°54' E 019°29'111.3
2017-Oct-18 11:55N 38°53' E 019°30'511.3
2017-Oct-18 11:31N 38°48' E 019°32'3911.5
2017-Oct-18 08:08N 38°12' E 019°49'111.2
2017-Oct-18 08:01N 38°11' E 019°50'  
2017-Oct-15 18:55N 40°58' E 028°58'  
Track history (hours):
 
Tides and Currents Weather Stations Pressure Air Temp Water Temp Dewpoint Dewpoint Depression Visibility Wind Speed Wind Dir Waves Ship Positions

Nbp Steamer

Last reported at 2017-Oct-18 16:54 UTC. Time now 2017-Oct-18 17:04 UTC.
Position N 39°45' E 019°05'.

Length 107 m; draft 5.4 m.

Type: Cargo ship. MMSI: 305714000.

Date/timePositionNaut miles runAvg speedWind from/ knotsBaromVisibWave heightAir tempDewpointWater temp
2017-Oct-18 16:54N 39°45' E 019°05'611.5
2017-Oct-18 16:25N 39°40' E 019°07'1711.3
2017-Oct-18 14:53N 39°24' E 019°15'2311.1
2017-Oct-18 12:49N 39°02' E 019°26'911.2
2017-Oct-18 12:03N 38°54' E 019°29'111.3
2017-Oct-18 11:55N 38°53' E 019°30'511.3
2017-Oct-18 11:31N 38°48' E 019°32'3911.5
2017-Oct-18 08:08N 38°12' E 019°49'111.2
2017-Oct-18 08:01N 38°11' E 019°50'  
2017-Oct-15 18:55N 40°58' E 028°58'  

Dump ship's entire track history